sensor_id;sensor_type;location;lat;lon;timestamp;P1;durP1;ratioP1;P2;durP2;ratioP2
36133;SDS011;40492;43.524;-1.510;2022-09-12T00:01:59;3.28;;;1.00;;
36133;SDS011;40492;43.524;-1.510;2022-09-12T00:04:25;2.45;;;0.93;;
36133;SDS011;40492;43.524;-1.510;2022-09-12T00:06:52;4.03;;;0.90;;
36133;SDS011;40492;43.524;-1.510;2022-09-12T00:09:18;2.05;;;1.00;;
36133;SDS011;40492;43.524;-1.510;2022-09-12T00:11:44;4.25;;;1.00;;
36133;SDS011;40492;43.524;-1.510;2022-09-12T00:14:13;4.30;;;1.10;;
36133;SDS011;40492;43.524;-1.510;2022-09-12T00:16:40;3.97;;;1.10;;
36133;SDS011;40492;43.524;-1.510;2022-09-12T00:19:07;2.67;;;0.90;;
36133;SDS011;40492;43.524;-1.510;2022-09-12T00:21:33;2.55;;;1.00;;
36133;SDS011;40492;43.524;-1.510;2022-09-12T00:24:01;8.18;;;1.05;;
36133;SDS011;40492;43.524;-1.510;2022-09-12T00:26:27;3.40;;;1.15;;
36133;SDS011;40492;43.524;-1.510;2022-09-12T00:28:53;2.80;;;1.08;;
36133;SDS011;40492;43.524;-1.510;2022-09-12T00:31:21;4.13;;;1.10;;
36133;SDS011;40492;43.524;-1.510;2022-09-12T00:33:49;2.72;;;0.90;;
36133;SDS011;40492;43.524;-1.510;2022-09-12T00:36:16;2.33;;;1.10;;
36133;SDS011;40492;43.524;-1.510;2022-09-12T00:38:44;1.40;;;0.90;;
36133;SDS011;40492;43.524;-1.510;2022-09-12T00:41:16;5.88;;;1.10;;
36133;SDS011;40492;43.524;-1.510;2022-09-12T00:43:43;1.25;;;0.90;;
36133;SDS011;40492;43.524;-1.510;2022-09-12T00:49:15;5.50;;;1.13;;
36133;SDS011;40492;43.524;-1.510;2022-09-12T00:51:54;2.83;;;0.90;;
36133;SDS011;40492;43.524;-1.510;2022-09-12T00:54:26;9.93;;;1.88;;
36133;SDS011;40492;43.524;-1.510;2022-09-12T00:56:58;6.05;;;1.42;;
36133;SDS011;40492;43.524;-1.510;2022-09-12T00:59:30;4.53;;;1.23;;
36133;SDS011;40492;43.524;-1.510;2022-09-12T01:02:01;1.80;;;1.10;;
36133;SDS011;40492;43.524;-1.510;2022-09-12T01:04:28;3.72;;;1.00;;
36133;SDS011;40492;43.524;-1.510;2022-09-12T01:06:54;5.18;;;1.10;;
36133;SDS011;40492;43.524;-1.510;2022-09-12T01:09:22;2.28;;;1.27;;
36133;SDS011;40492;43.524;-1.510;2022-09-12T01:11:50;2.95;;;1.20;;
36133;SDS011;40492;43.524;-1.510;2022-09-12T01:14:17;6.32;;;1.33;;
36133;SDS011;40492;43.524;-1.510;2022-09-12T01:16:45;5.32;;;1.25;;
36133;SDS011;40492;43.524;-1.510;2022-09-12T01:25:07;2.13;;;1.20;;
36133;SDS011;40492;43.524;-1.510;2022-09-12T01:27:55;3.30;;;1.17;;
36133;SDS011;40492;43.524;-1.510;2022-09-12T01:36:16;4.22;;;1.10;;
36133;SDS011;40492;43.524;-1.510;2022-09-12T01:41:23;6.28;;;1.30;;
36133;SDS011;40492;43.524;-1.510;2022-09-12T01:49:39;5.45;;;1.50;;
36133;SDS011;40492;43.524;-1.510;2022-09-12T01:52:22;4.85;;;1.25;;
36133;SDS011;40492;43.524;-1.510;2022-09-12T01:55:15;4.15;;;1.42;;
36133;SDS011;40492;43.524;-1.510;2022-09-12T01:58:11;3.60;;;1.30;;
36133;SDS011;40492;43.524;-1.510;2022-09-12T02:00:44;4.38;;;1.10;;
36133;SDS011;40492;43.524;-1.510;2022-09-12T02:03:24;3.85;;;1.40;;
36133;SDS011;40492;43.524;-1.510;2022-09-12T02:06:08;5.55;;;1.45;;
36133;SDS011;40492;43.524;-1.510;2022-09-12T02:08:50;2.75;;;1.17;;
36133;SDS011;40492;43.524;-1.510;2022-09-12T02:11:19;3.38;;;1.25;;
36133;SDS011;40492;43.524;-1.510;2022-09-12T02:13:53;3.92;;;1.50;;
36133;SDS011;40492;43.524;-1.510;2022-09-12T02:16:41;2.15;;;1.42;;
36133;SDS011;40492;43.524;-1.510;2022-09-12T02:19:16;5.28;;;1.50;;
36133;SDS011;40492;43.524;-1.510;2022-09-12T02:21:58;4.45;;;1.60;;
36133;SDS011;40492;43.524;-1.510;2022-09-12T02:24:29;4.03;;;1.65;;
36133;SDS011;40492;43.524;-1.510;2022-09-12T02:27:03;4.10;;;1.52;;
36133;SDS011;40492;43.524;-1.510;2022-09-12T02:29:34;4.10;;;1.55;;
36133;SDS011;40492;43.524;-1.510;2022-09-12T02:32:03;4.07;;;1.20;;
36133;SDS011;40492;43.524;-1.510;2022-09-12T02:34:41;3.22;;;1.42;;
36133;SDS011;40492;43.524;-1.510;2022-09-12T02:37:22;7.13;;;1.80;;
36133;SDS011;40492;43.524;-1.510;2022-09-12T02:39:56;3.92;;;1.40;;
36133;SDS011;40492;43.524;-1.510;2022-09-12T02:42:23;3.20;;;1.20;;
36133;SDS011;40492;43.524;-1.510;2022-09-12T02:44:50;6.30;;;1.65;;
36133;SDS011;40492;43.524;-1.510;2022-09-12T02:47:24;4.95;;;1.75;;
36133;SDS011;40492;43.524;-1.510;2022-09-12T02:49:57;4.53;;;1.33;;
36133;SDS011;40492;43.524;-1.510;2022-09-12T02:52:24;3.92;;;1.50;;
36133;SDS011;40492;43.524;-1.510;2022-09-12T02:54:52;3.45;;;1.30;;
36133;SDS011;40492;43.524;-1.510;2022-09-12T02:57:20;2.22;;;1.55;;
36133;SDS011;40492;43.524;-1.510;2022-09-12T02:59:46;3.40;;;1.60;;
36133;SDS011;40492;43.524;-1.510;2022-09-12T03:21:12;2.25;;;1.40;;
36133;SDS011;40492;43.524;-1.510;2022-09-12T03:26:43;6.10;;;1.70;;
36133;SDS011;40492;43.524;-1.510;2022-09-12T03:29:28;7.72;;;1.80;;
36133;SDS011;40492;43.524;-1.510;2022-09-12T03:31:56;3.08;;;1.40;;
36133;SDS011;40492;43.524;-1.510;2022-09-12T03:34:24;5.97;;;1.88;;
36133;SDS011;40492;43.524;-1.510;2022-09-12T03:36:51;4.55;;;1.67;;
36133;SDS011;40492;43.524;-1.510;2022-09-12T03:39:21;4.57;;;1.58;;
36133;SDS011;40492;43.524;-1.510;2022-09-12T03:41:51;5.55;;;2.00;;
36133;SDS011;40492;43.524;-1.510;2022-09-12T03:44:17;2.88;;;1.52;;
36133;SDS011;40492;43.524;-1.510;2022-09-12T03:46:44;4.35;;;1.80;;
36133;SDS011;40492;43.524;-1.510;2022-09-12T03:49:10;4.20;;;1.90;;
36133;SDS011;40492;43.524;-1.510;2022-09-12T03:51:37;2.90;;;1.60;;
36133;SDS011;40492;43.524;-1.510;2022-09-12T03:54:04;4.85;;;1.70;;
36133;SDS011;40492;43.524;-1.510;2022-09-12T03:56:31;4.15;;;1.52;;
36133;SDS011;40492;43.524;-1.510;2022-09-12T03:58:57;3.97;;;1.48;;
36133;SDS011;40492;43.524;-1.510;2022-09-12T04:01:23;1.95;;;1.63;;
36133;SDS011;40492;43.524;-1.510;2022-09-12T04:03:51;2.88;;;1.80;;
36133;SDS011;40492;43.524;-1.510;2022-09-12T04:06:18;4.90;;;1.52;;
36133;SDS011;40492;43.524;-1.510;2022-09-12T04:08:49;5.13;;;2.28;;
36133;SDS011;40492;43.524;-1.510;2022-09-12T04:11:17;3.78;;;2.00;;
36133;SDS011;40492;43.524;-1.510;2022-09-12T04:13:44;4.72;;;1.50;;
36133;SDS011;40492;43.524;-1.510;2022-09-12T04:16:11;2.15;;;1.75;;
36133;SDS011;40492;43.524;-1.510;2022-09-12T04:18:38;3.42;;;1.90;;
36133;SDS011;40492;43.524;-1.510;2022-09-12T04:21:06;6.15;;;1.70;;
36133;SDS011;40492;43.524;-1.510;2022-09-12T04:23:33;3.20;;;1.67;;
36133;SDS011;40492;43.524;-1.510;2022-09-12T04:26:00;5.80;;;2.10;;
36133;SDS011;40492;43.524;-1.510;2022-09-12T04:28:30;7.53;;;1.90;;
36133;SDS011;40492;43.524;-1.510;2022-09-12T04:31:07;3.38;;;1.77;;
36133;SDS011;40492;43.524;-1.510;2022-09-12T04:33:37;2.85;;;2.05;;
36133;SDS011;40492;43.524;-1.510;2022-09-12T04:36:11;4.50;;;2.20;;
36133;SDS011;40492;43.524;-1.510;2022-09-12T04:38:41;7.70;;;2.13;;
36133;SDS011;40492;43.524;-1.510;2022-09-12T04:41:18;4.13;;;2.08;;
36133;SDS011;40492;43.524;-1.510;2022-09-12T04:43:46;2.75;;;1.75;;
36133;SDS011;40492;43.524;-1.510;2022-09-12T04:46:16;5.00;;;1.90;;
36133;SDS011;40492;43.524;-1.510;2022-09-12T04:48:44;5.15;;;2.00;;
36133;SDS011;40492;43.524;-1.510;2022-09-12T04:51:12;6.25;;;2.22;;
36133;SDS011;40492;43.524;-1.510;2022-09-12T04:53:47;4.40;;;1.90;;
36133;SDS011;40492;43.524;-1.510;2022-09-12T04:56:14;3.47;;;1.85;;
36133;SDS011;40492;43.524;-1.510;2022-09-12T04:58:40;5.93;;;1.98;;
36133;SDS011;40492;43.524;-1.510;2022-09-12T05:01:13;3.88;;;1.70;;
36133;SDS011;40492;43.524;-1.510;2022-09-12T05:03:41;8.80;;;1.73;;
36133;SDS011;40492;43.524;-1.510;2022-09-12T05:06:09;5.90;;;2.42;;
36133;SDS011;40492;43.524;-1.510;2022-09-12T05:08:37;4.40;;;2.03;;
36133;SDS011;40492;43.524;-1.510;2022-09-12T05:11:03;6.47;;;2.00;;
36133;SDS011;40492;43.524;-1.510;2022-09-12T05:13:31;11.20;;;2.08;;
36133;SDS011;40492;43.524;-1.510;2022-09-12T05:15:58;3.38;;;2.38;;
36133;SDS011;40492;43.524;-1.510;2022-09-12T05:18:25;3.00;;;1.80;;
36133;SDS011;40492;43.524;-1.510;2022-09-12T05:20:51;3.65;;;1.70;;
36133;SDS011;40492;43.524;-1.510;2022-09-12T05:23:19;2.10;;;1.70;;
36133;SDS011;40492;43.524;-1.510;2022-09-12T05:25:52;4.03;;;1.77;;
36133;SDS011;40492;43.524;-1.510;2022-09-12T05:28:19;4.32;;;1.95;;
36133;SDS011;40492;43.524;-1.510;2022-09-12T05:30:46;3.05;;;1.88;;
36133;SDS011;40492;43.524;-1.510;2022-09-12T05:33:13;8.20;;;2.08;;
36133;SDS011;40492;43.524;-1.510;2022-09-12T05:35:39;1.85;;;1.42;;
36133;SDS011;40492;43.524;-1.510;2022-09-12T05:38:06;6.07;;;2.20;;
36133;SDS011;40492;43.524;-1.510;2022-09-12T05:40:32;4.22;;;2.00;;
36133;SDS011;40492;43.524;-1.510;2022-09-12T05:42:59;2.00;;;1.50;;
36133;SDS011;40492;43.524;-1.510;2022-09-12T05:45:25;2.33;;;2.05;;
36133;SDS011;40492;43.524;-1.510;2022-09-12T05:47:51;5.22;;;2.50;;
36133;SDS011;40492;43.524;-1.510;2022-09-12T05:50:21;5.28;;;2.17;;
36133;SDS011;40492;43.524;-1.510;2022-09-12T05:52:47;6.78;;;2.38;;
36133;SDS011;40492;43.524;-1.510;2022-09-12T05:55:13;4.20;;;2.10;;
36133;SDS011;40492;43.524;-1.510;2022-09-12T05:57:42;5.13;;;2.25;;
36133;SDS011;40492;43.524;-1.510;2022-09-12T06:00:10;5.18;;;1.80;;
36133;SDS011;40492;43.524;-1.510;2022-09-12T06:02:38;3.83;;;1.88;;
36133;SDS011;40492;43.524;-1.510;2022-09-12T06:05:04;6.47;;;2.33;;
36133;SDS011;40492;43.524;-1.510;2022-09-12T06:07:30;2.67;;;2.17;;
36133;SDS011;40492;43.524;-1.510;2022-09-12T06:09:56;7.97;;;1.95;;
36133;SDS011;40492;43.524;-1.510;2022-09-12T06:12:23;12.00;;;2.78;;
36133;SDS011;40492;43.524;-1.510;2022-09-12T06:14:53;4.15;;;2.10;;
36133;SDS011;40492;43.524;-1.510;2022-09-12T06:17:19;4.35;;;1.90;;
36133;SDS011;40492;43.524;-1.510;2022-09-12T06:19:44;7.35;;;2.08;;
36133;SDS011;40492;43.524;-1.510;2022-09-12T06:22:10;10.25;;;2.47;;
36133;SDS011;40492;43.524;-1.510;2022-09-12T06:24:37;3.30;;;1.92;;
36133;SDS011;40492;43.524;-1.510;2022-09-12T06:27:03;8.52;;;2.00;;
36133;SDS011;40492;43.524;-1.510;2022-09-12T06:29:29;3.80;;;1.75;;
36133;SDS011;40492;43.524;-1.510;2022-09-12T06:31:56;5.15;;;1.73;;
36133;SDS011;40492;43.524;-1.510;2022-09-12T06:34:22;7.63;;;1.50;;
36133;SDS011;40492;43.524;-1.510;2022-09-12T06:36:51;7.68;;;1.90;;
36133;SDS011;40492;43.524;-1.510;2022-09-12T06:39:21;6.32;;;1.80;;
36133;SDS011;40492;43.524;-1.510;2022-09-12T06:41:48;5.35;;;2.10;;
36133;SDS011;40492;43.524;-1.510;2022-09-12T06:44:16;10.07;;;1.92;;
36133;SDS011;40492;43.524;-1.510;2022-09-12T06:46:44;3.83;;;1.95;;
36133;SDS011;40492;43.524;-1.510;2022-09-12T06:49:10;2.95;;;1.85;;
36133;SDS011;40492;43.524;-1.510;2022-09-12T06:51:37;4.22;;;1.55;;
36133;SDS011;40492;43.524;-1.510;2022-09-12T06:54:03;6.88;;;2.00;;
36133;SDS011;40492;43.524;-1.510;2022-09-12T06:56:29;2.03;;;1.50;;
36133;SDS011;40492;43.524;-1.510;2022-09-12T06:58:56;8.57;;;2.03;;
36133;SDS011;40492;43.524;-1.510;2022-09-12T07:01:27;4.47;;;1.77;;
36133;SDS011;40492;43.524;-1.510;2022-09-12T07:03:55;6.43;;;2.10;;
36133;SDS011;40492;43.524;-1.510;2022-09-12T07:06:24;4.95;;;2.03;;
36133;SDS011;40492;43.524;-1.510;2022-09-12T07:08:59;6.28;;;2.65;;
36133;SDS011;40492;43.524;-1.510;2022-09-12T07:11:29;6.97;;;2.10;;
36133;SDS011;40492;43.524;-1.510;2022-09-12T07:13:57;6.07;;;1.92;;
36133;SDS011;40492;43.524;-1.510;2022-09-12T07:16:23;5.63;;;1.85;;
36133;SDS011;40492;43.524;-1.510;2022-09-12T07:18:51;6.90;;;1.88;;
36133;SDS011;40492;43.524;-1.510;2022-09-12T07:21:18;5.65;;;2.42;;
36133;SDS011;40492;43.524;-1.510;2022-09-12T07:23:44;6.78;;;2.10;;
36133;SDS011;40492;43.524;-1.510;2022-09-12T07:26:11;7.55;;;2.15;;
36133;SDS011;40492;43.524;-1.510;2022-09-12T07:28:39;6.53;;;2.28;;
36133;SDS011;40492;43.524;-1.510;2022-09-12T07:31:06;7.25;;;2.00;;
36133;SDS011;40492;43.524;-1.510;2022-09-12T07:33:37;24.15;;;3.30;;
36133;SDS011;40492;43.524;-1.510;2022-09-12T07:36:05;29.40;;;3.47;;
36133;SDS011;40492;43.524;-1.510;2022-09-12T07:38:33;16.55;;;3.30;;
36133;SDS011;40492;43.524;-1.510;2022-09-12T07:40:59;15.70;;;2.60;;
36133;SDS011;40492;43.524;-1.510;2022-09-12T07:43:26;18.10;;;2.67;;
36133;SDS011;40492;43.524;-1.510;2022-09-12T07:45:55;19.25;;;3.13;;
36133;SDS011;40492;43.524;-1.510;2022-09-12T07:48:21;22.73;;;3.60;;
36133;SDS011;40492;43.524;-1.510;2022-09-12T07:50:55;30.60;;;3.58;;
36133;SDS011;40492;43.524;-1.510;2022-09-12T07:53:23;28.90;;;4.25;;
36133;SDS011;40492;43.524;-1.510;2022-09-12T07:55:56;26.77;;;3.75;;
36133;SDS011;40492;43.524;-1.510;2022-09-12T07:58:22;31.97;;;4.30;;
36133;SDS011;40492;43.524;-1.510;2022-09-12T08:00:48;35.45;;;3.70;;
36133;SDS011;40492;43.524;-1.510;2022-09-12T08:03:14;25.63;;;4.25;;
36133;SDS011;40492;43.524;-1.510;2022-09-12T08:05:40;26.35;;;3.88;;
36133;SDS011;40492;43.524;-1.510;2022-09-12T08:08:07;41.47;;;4.38;;
36133;SDS011;40492;43.524;-1.510;2022-09-12T08:10:33;17.58;;;3.38;;
36133;SDS011;40492;43.524;-1.510;2022-09-12T08:13:00;18.02;;;3.88;;
36133;SDS011;40492;43.524;-1.510;2022-09-12T08:15:28;25.13;;;3.40;;
36133;SDS011;40492;43.524;-1.510;2022-09-12T08:17:55;14.63;;;3.08;;
36133;SDS011;40492;43.524;-1.510;2022-09-12T08:20:21;15.20;;;2.92;;
36133;SDS011;40492;43.524;-1.510;2022-09-12T08:22:47;13.73;;;2.50;;
36133;SDS011;40492;43.524;-1.510;2022-09-12T08:25:13;11.25;;;2.38;;
36133;SDS011;40492;43.524;-1.510;2022-09-12T08:27:39;10.98;;;2.20;;
36133;SDS011;40492;43.524;-1.510;2022-09-12T08:30:07;8.10;;;1.88;;
36133;SDS011;40492;43.524;-1.510;2022-09-12T08:32:34;11.52;;;2.75;;
36133;SDS011;40492;43.524;-1.510;2022-09-12T08:35:00;12.07;;;2.42;;
36133;SDS011;40492;43.524;-1.510;2022-09-12T08:37:28;11.45;;;2.38;;
36133;SDS011;40492;43.524;-1.510;2022-09-12T08:39:55;11.23;;;2.70;;
36133;SDS011;40492;43.524;-1.510;2022-09-12T08:45:34;27.70;;;3.10;;
36133;SDS011;40492;43.524;-1.510;2022-09-12T08:48:07;12.88;;;2.92;;
36133;SDS011;40492;43.524;-1.510;2022-09-12T08:50:35;25.38;;;3.00;;
36133;SDS011;40492;43.524;-1.510;2022-09-12T08:53:02;16.92;;;2.92;;
36133;SDS011;40492;43.524;-1.510;2022-09-12T08:55:39;19.38;;;2.90;;
36133;SDS011;40492;43.524;-1.510;2022-09-12T08:58:18;9.43;;;2.72;;
36133;SDS011;40492;43.524;-1.510;2022-09-12T09:09:53;11.80;;;2.70;;
36133;SDS011;40492;43.524;-1.510;2022-09-12T09:13:07;12.23;;;2.78;;
36133;SDS011;40492;43.524;-1.510;2022-09-12T09:16:07;14.10;;;2.45;;
36133;SDS011;40492;43.524;-1.510;2022-09-12T09:19:03;10.15;;;2.13;;
36133;SDS011;40492;43.524;-1.510;2022-09-12T09:21:47;8.02;;;2.15;;
36133;SDS011;40492;43.524;-1.510;2022-09-12T09:24:26;6.13;;;2.03;;
36133;SDS011;40492;43.524;-1.510;2022-09-12T09:27:30;13.18;;;2.45;;
36133;SDS011;40492;43.524;-1.510;2022-09-12T09:30:03;7.60;;;2.88;;
36133;SDS011;40492;43.524;-1.510;2022-09-12T09:32:31;10.48;;;2.55;;
36133;SDS011;40492;43.524;-1.510;2022-09-12T09:35:05;20.25;;;6.90;;
36133;SDS011;40492;43.524;-1.510;2022-09-12T09:37:43;9.93;;;2.80;;
36133;SDS011;40492;43.524;-1.510;2022-09-12T09:40:21;9.57;;;2.92;;
36133;SDS011;40492;43.524;-1.510;2022-09-12T09:45:34;9.13;;;2.40;;
36133;SDS011;40492;43.524;-1.510;2022-09-12T09:48:18;13.15;;;2.47;;
36133;SDS011;40492;43.524;-1.510;2022-09-12T09:50:48;9.77;;;2.03;;
36133;SDS011;40492;43.524;-1.510;2022-09-12T09:55:48;12.63;;;2.50;;
36133;SDS011;40492;43.524;-1.510;2022-09-12T09:58:28;8.30;;;2.35;;
36133;SDS011;40492;43.524;-1.510;2022-09-12T10:00:59;8.13;;;1.98;;
36133;SDS011;40492;43.524;-1.510;2022-09-12T10:03:31;10.73;;;2.55;;
36133;SDS011;40492;43.524;-1.510;2022-09-12T10:06:00;7.05;;;2.22;;
36133;SDS011;40492;43.524;-1.510;2022-09-12T10:08:32;8.82;;;2.05;;
36133;SDS011;40492;43.524;-1.510;2022-09-12T10:11:08;8.27;;;2.40;;
36133;SDS011;40492;43.524;-1.510;2022-09-12T10:16:29;11.30;;;1.80;;
36133;SDS011;40492;43.524;-1.510;2022-09-12T10:19:00;14.55;;;2.60;;
36133;SDS011;40492;43.524;-1.510;2022-09-12T10:24:26;12.88;;;2.22;;
36133;SDS011;40492;43.524;-1.510;2022-09-12T10:29:31;9.20;;;2.10;;
36133;SDS011;40492;43.524;-1.510;2022-09-12T10:32:04;9.77;;;2.00;;
36133;SDS011;40492;43.524;-1.510;2022-09-12T10:37:06;12.38;;;2.67;;
36133;SDS011;40492;43.524;-1.510;2022-09-12T10:39:36;8.38;;;2.35;;
36133;SDS011;40492;43.524;-1.510;2022-09-12T10:42:03;7.70;;;2.00;;
36133;SDS011;40492;43.524;-1.510;2022-09-12T10:44:30;10.75;;;2.00;;
36133;SDS011;40492;43.524;-1.510;2022-09-12T10:46:59;10.88;;;2.95;;
36133;SDS011;40492;43.524;-1.510;2022-09-12T10:49:43;10.18;;;2.22;;
36133;SDS011;40492;43.524;-1.510;2022-09-12T10:52:17;8.32;;;2.00;;
36133;SDS011;40492;43.524;-1.510;2022-09-12T10:54:47;11.30;;;2.03;;
36133;SDS011;40492;43.524;-1.510;2022-09-12T11:00:14;9.50;;;2.50;;
36133;SDS011;40492;43.524;-1.510;2022-09-12T11:02:47;11.98;;;2.50;;
36133;SDS011;40492;43.524;-1.510;2022-09-12T11:16:24;7.78;;;1.83;;
36133;SDS011;40492;43.524;-1.510;2022-09-12T11:42:52;9.45;;;2.15;;
36133;SDS011;40492;43.524;-1.510;2022-09-12T11:45:27;11.27;;;2.00;;
36133;SDS011;40492;43.524;-1.510;2022-09-12T11:50:55;8.20;;;1.80;;
36133;SDS011;40492;43.524;-1.510;2022-09-12T11:53:29;8.13;;;2.20;;
36133;SDS011;40492;43.524;-1.510;2022-09-12T11:56:03;8.68;;;2.05;;
36133;SDS011;40492;43.524;-1.510;2022-09-12T11:58:37;8.55;;;2.05;;
36133;SDS011;40492;43.524;-1.510;2022-09-12T12:01:11;11.77;;;2.40;;
36133;SDS011;40492;43.524;-1.510;2022-09-12T12:03:46;12.77;;;1.90;;
36133;SDS011;40492;43.524;-1.510;2022-09-12T12:09:09;11.00;;;2.25;;
36133;SDS011;40492;43.524;-1.510;2022-09-12T12:11:39;11.98;;;2.50;;
36133;SDS011;40492;43.524;-1.510;2022-09-12T12:14:14;13.53;;;2.20;;
36133;SDS011;40492;43.524;-1.510;2022-09-12T12:16:48;7.07;;;2.53;;
36133;SDS011;40492;43.524;-1.510;2022-09-12T12:21:41;10.70;;;2.00;;
36133;SDS011;40492;43.524;-1.510;2022-09-12T12:24:19;11.35;;;2.40;;
36133;SDS011;40492;43.524;-1.510;2022-09-12T12:26:56;12.18;;;2.42;;
36133;SDS011;40492;43.524;-1.510;2022-09-12T12:29:36;12.65;;;2.65;;
36133;SDS011;40492;43.524;-1.510;2022-09-12T12:34:30;9.50;;;2.17;;
36133;SDS011;40492;43.524;-1.510;2022-09-12T12:36:59;12.25;;;2.42;;
36133;SDS011;40492;43.524;-1.510;2022-09-12T12:44:59;12.77;;;2.20;;
36133;SDS011;40492;43.524;-1.510;2022-09-12T12:47:43;8.43;;;2.35;;
36133;SDS011;40492;43.524;-1.510;2022-09-12T12:52:48;12.75;;;2.00;;
36133;SDS011;40492;43.524;-1.510;2022-09-12T12:58:05;9.07;;;2.30;;
36133;SDS011;40492;43.524;-1.510;2022-09-12T13:00:46;13.68;;;2.53;;
36133;SDS011;40492;43.524;-1.510;2022-09-12T13:03:29;8.40;;;2.55;;
36133;SDS011;40492;43.524;-1.510;2022-09-12T13:05:59;8.63;;;2.10;;
36133;SDS011;40492;43.524;-1.510;2022-09-12T13:08:35;18.17;;;2.95;;
36133;SDS011;40492;43.524;-1.510;2022-09-12T13:11:10;14.13;;;2.53;;
36133;SDS011;40492;43.524;-1.510;2022-09-12T13:16:08;15.27;;;3.05;;
36133;SDS011;40492;43.524;-1.510;2022-09-12T13:18:45;14.63;;;3.45;;
36133;SDS011;40492;43.524;-1.510;2022-09-12T13:21:14;18.08;;;3.00;;
36133;SDS011;40492;43.524;-1.510;2022-09-12T13:23:41;11.10;;;2.53;;
36133;SDS011;40492;43.524;-1.510;2022-09-12T13:26:12;13.48;;;2.25;;
36133;SDS011;40492;43.524;-1.510;2022-09-12T13:28:46;9.63;;;2.75;;
36133;SDS011;40492;43.524;-1.510;2022-09-12T13:31:23;11.50;;;2.53;;
36133;SDS011;40492;43.524;-1.510;2022-09-12T13:33:58;14.20;;;2.70;;
36133;SDS011;40492;43.524;-1.510;2022-09-12T13:44:24;13.70;;;2.58;;
36133;SDS011;40492;43.524;-1.510;2022-09-12T13:46:51;12.95;;;2.20;;
36133;SDS011;40492;43.524;-1.510;2022-09-12T13:54:40;10.30;;;2.25;;
36133;SDS011;40492;43.524;-1.510;2022-09-12T13:57:25;8.82;;;2.13;;
36133;SDS011;40492;43.524;-1.510;2022-09-12T13:59:57;8.32;;;2.47;;
36133;SDS011;40492;43.524;-1.510;2022-09-12T14:02:25;8.15;;;1.88;;
36133;SDS011;40492;43.524;-1.510;2022-09-12T14:04:53;8.57;;;2.13;;
36133;SDS011;40492;43.524;-1.510;2022-09-12T14:07:36;15.95;;;3.03;;
36133;SDS011;40492;43.524;-1.510;2022-09-12T14:10:14;10.98;;;2.30;;
36133;SDS011;40492;43.524;-1.510;2022-09-12T14:12:45;12.95;;;2.75;;
36133;SDS011;40492;43.524;-1.510;2022-09-12T14:15:19;11.85;;;2.55;;
36133;SDS011;40492;43.524;-1.510;2022-09-12T14:17:50;15.27;;;2.53;;
36133;SDS011;40492;43.524;-1.510;2022-09-12T14:20:17;14.38;;;2.33;;
36133;SDS011;40492;43.524;-1.510;2022-09-12T14:22:46;14.60;;;2.28;;
36133;SDS011;40492;43.524;-1.510;2022-09-12T14:25:14;10.82;;;1.98;;
36133;SDS011;40492;43.524;-1.510;2022-09-12T14:28:00;11.93;;;2.38;;
36133;SDS011;40492;43.524;-1.510;2022-09-12T14:30:27;9.07;;;2.08;;
36133;SDS011;40492;43.524;-1.510;2022-09-12T14:33:05;13.80;;;2.38;;
36133;SDS011;40492;43.524;-1.510;2022-09-12T14:35:43;7.65;;;1.92;;
36133;SDS011;40492;43.524;-1.510;2022-09-12T14:38:34;11.23;;;2.42;;
36133;SDS011;40492;43.524;-1.510;2022-09-12T14:41:07;14.75;;;2.85;;
36133;SDS011;40492;43.524;-1.510;2022-09-12T14:43:35;11.18;;;1.95;;
36133;SDS011;40492;43.524;-1.510;2022-09-12T14:46:07;9.52;;;2.05;;
36133;SDS011;40492;43.524;-1.510;2022-09-12T14:51:34;10.02;;;1.73;;
36133;SDS011;40492;43.524;-1.510;2022-09-12T14:57:02;8.40;;;2.10;;
36133;SDS011;40492;43.524;-1.510;2022-09-12T14:59:35;10.30;;;2.53;;
36133;SDS011;40492;43.524;-1.510;2022-09-12T15:02:10;11.07;;;2.45;;
36133;SDS011;40492;43.524;-1.510;2022-09-12T15:04:46;10.15;;;2.35;;
36133;SDS011;40492;43.524;-1.510;2022-09-12T15:07:23;9.80;;;2.33;;
36133;SDS011;40492;43.524;-1.510;2022-09-12T15:12:23;7.00;;;2.00;;
36133;SDS011;40492;43.524;-1.510;2022-09-12T15:14:50;7.10;;;1.60;;
36133;SDS011;40492;43.524;-1.510;2022-09-12T15:17:16;12.30;;;2.22;;
36133;SDS011;40492;43.524;-1.510;2022-09-12T15:19:42;8.52;;;2.10;;
36133;SDS011;40492;43.524;-1.510;2022-09-12T15:22:11;11.73;;;1.90;;
36133;SDS011;40492;43.524;-1.510;2022-09-12T15:24:38;14.55;;;2.22;;
36133;SDS011;40492;43.524;-1.510;2022-09-12T15:27:10;13.68;;;2.05;;
36133;SDS011;40492;43.524;-1.510;2022-09-12T15:29:37;13.23;;;2.45;;
36133;SDS011;40492;43.524;-1.510;2022-09-12T15:32:03;8.05;;;2.22;;
36133;SDS011;40492;43.524;-1.510;2022-09-12T15:34:30;9.90;;;1.60;;
36133;SDS011;40492;43.524;-1.510;2022-09-12T15:36:57;14.13;;;2.47;;
36133;SDS011;40492;43.524;-1.510;2022-09-12T15:39:23;8.05;;;1.58;;
36133;SDS011;40492;43.524;-1.510;2022-09-12T15:41:49;11.18;;;2.47;;
36133;SDS011;40492;43.524;-1.510;2022-09-12T15:44:15;9.20;;;2.53;;
36133;SDS011;40492;43.524;-1.510;2022-09-12T15:46:41;9.35;;;2.05;;
36133;SDS011;40492;43.524;-1.510;2022-09-12T15:49:07;9.23;;;2.40;;
36133;SDS011;40492;43.524;-1.510;2022-09-12T15:51:33;7.75;;;2.03;;
36133;SDS011;40492;43.524;-1.510;2022-09-12T15:54:00;7.50;;;2.08;;
36133;SDS011;40492;43.524;-1.510;2022-09-12T15:56:27;9.20;;;2.33;;
36133;SDS011;40492;43.524;-1.510;2022-09-12T15:58:53;9.95;;;2.00;;
36133;SDS011;40492;43.524;-1.510;2022-09-12T16:01:20;11.52;;;2.15;;
36133;SDS011;40492;43.524;-1.510;2022-09-12T16:03:47;10.35;;;2.15;;
36133;SDS011;40492;43.524;-1.510;2022-09-12T16:06:13;9.65;;;2.13;;
36133;SDS011;40492;43.524;-1.510;2022-09-12T16:08:39;10.07;;;2.47;;
36133;SDS011;40492;43.524;-1.510;2022-09-12T16:11:07;9.02;;;2.03;;
36133;SDS011;40492;43.524;-1.510;2022-09-12T16:14:00;13.13;;;2.15;;
36133;SDS011;40492;43.524;-1.510;2022-09-12T16:16:27;9.23;;;2.40;;
36133;SDS011;40492;43.524;-1.510;2022-09-12T16:18:53;15.23;;;2.50;;
36133;SDS011;40492;43.524;-1.510;2022-09-12T16:21:19;14.13;;;3.38;;
36133;SDS011;40492;43.524;-1.510;2022-09-12T16:23:46;14.90;;;2.25;;
36133;SDS011;40492;43.524;-1.510;2022-09-12T16:26:12;8.60;;;1.98;;
36133;SDS011;40492;43.524;-1.510;2022-09-12T16:28:39;10.93;;;2.55;;
36133;SDS011;40492;43.524;-1.510;2022-09-12T16:31:05;7.20;;;2.10;;
36133;SDS011;40492;43.524;-1.510;2022-09-12T16:33:32;5.70;;;2.03;;
36133;SDS011;40492;43.524;-1.510;2022-09-12T16:36:02;19.92;;;3.40;;
36133;SDS011;40492;43.524;-1.510;2022-09-12T16:38:32;11.65;;;2.40;;
36133;SDS011;40492;43.524;-1.510;2022-09-12T16:41:00;12.63;;;2.58;;
36133;SDS011;40492;43.524;-1.510;2022-09-12T16:43:28;10.35;;;2.58;;
36133;SDS011;40492;43.524;-1.510;2022-09-12T16:48:28;30.58;;;6.95;;
36133;SDS011;40492;43.524;-1.510;2022-09-12T16:50:55;24.08;;;5.43;;
36133;SDS011;40492;43.524;-1.510;2022-09-12T16:53:22;19.63;;;4.57;;
36133;SDS011;40492;43.524;-1.510;2022-09-12T16:55:48;27.50;;;4.85;;
36133;SDS011;40492;43.524;-1.510;2022-09-12T16:58:15;23.42;;;4.65;;
36133;SDS011;40492;43.524;-1.510;2022-09-12T17:00:41;20.52;;;4.82;;
36133;SDS011;40492;43.524;-1.510;2022-09-12T17:03:08;17.80;;;3.55;;
36133;SDS011;40492;43.524;-1.510;2022-09-12T17:05:35;17.27;;;3.67;;
36133;SDS011;40492;43.524;-1.510;2022-09-12T17:08:01;12.27;;;3.95;;
36133;SDS011;40492;43.524;-1.510;2022-09-12T17:10:27;17.63;;;4.05;;
36133;SDS011;40492;43.524;-1.510;2022-09-12T17:12:54;18.05;;;3.75;;
36133;SDS011;40492;43.524;-1.510;2022-09-12T17:15:21;22.73;;;4.18;;
36133;SDS011;40492;43.524;-1.510;2022-09-12T17:17:47;16.33;;;4.28;;
36133;SDS011;40492;43.524;-1.510;2022-09-12T17:20:16;16.90;;;3.90;;
36133;SDS011;40492;43.524;-1.510;2022-09-12T17:22:42;13.23;;;3.63;;
36133;SDS011;40492;43.524;-1.510;2022-09-12T17:25:08;16.92;;;3.90;;
36133;SDS011;40492;43.524;-1.510;2022-09-12T17:27:34;17.67;;;3.97;;